createdAt,value
2022-10-11T00:00:57.866Z,8.82
2022-10-11T00:03:26.882Z,10.80
2022-10-11T00:05:56.829Z,6.65
2022-10-11T00:08:27.328Z,7.05
2022-10-11T00:11:04.452Z,10.00
2022-10-11T00:13:34.021Z,9.10
2022-10-11T00:16:10.825Z,7.37
2022-10-11T00:18:40.344Z,6.32
2022-10-11T00:21:13.941Z,9.45
2022-10-11T00:23:44.508Z,8.05
2022-10-11T00:26:15.198Z,7.93
2022-10-11T00:28:44.229Z,10.60
2022-10-11T00:31:16.609Z,7.13
2022-10-11T00:33:46.052Z,7.40
2022-10-11T00:36:17.050Z,8.35
2022-10-11T00:38:46.972Z,7.20
2022-10-11T00:41:18.258Z,5.90
2022-10-11T00:44:19.239Z,5.82
2022-10-11T00:47:04.531Z,6.53
2022-10-11T00:49:53.483Z,7.07
2022-10-11T00:52:41.882Z,7.38
2022-10-11T00:55:28.520Z,7.10
2022-10-11T00:58:26.507Z,6.90
2022-10-11T01:01:19.317Z,7.95
2022-10-11T01:04:00.502Z,5.67
2022-10-11T01:06:50.641Z,6.95
2022-10-11T01:09:31.381Z,7.82
2022-10-11T01:12:20.020Z,7.90
2022-10-11T01:15:18.706Z,7.97
2022-10-11T01:18:34.320Z,7.83
2022-10-11T01:21:32.166Z,7.22
2022-10-11T01:24:40.873Z,11.10
2022-10-11T01:27:49.799Z,7.40
2022-10-11T01:30:34.613Z,7.67
2022-10-11T01:33:31.409Z,7.00
2022-10-11T01:36:32.316Z,7.45
2022-10-11T01:39:32.816Z,8.80
2022-10-11T01:42:21.837Z,8.07
2022-10-11T01:45:02.635Z,6.03
2022-10-11T01:48:09.523Z,6.43
2022-10-11T01:51:03.627Z,8.65
2022-10-11T01:55:07.986Z,6.10
2022-10-11T01:58:27.767Z,8.93
2022-10-11T02:01:22.158Z,7.47
2022-10-11T02:04:13.539Z,8.25
2022-10-11T02:07:18.642Z,7.05
2022-10-11T02:10:08.253Z,5.37
2022-10-11T02:13:04.789Z,8.88
2022-10-11T02:15:47.875Z,7.60
2022-10-11T02:18:49.502Z,5.97
2022-10-11T02:21:35.108Z,6.03
2022-10-11T02:24:23.811Z,4.60
2022-10-11T02:27:07.598Z,5.75
2022-10-11T02:30:10.325Z,6.13
2022-10-11T02:32:55.747Z,6.53
2022-10-11T02:36:10.211Z,7.13
2022-10-11T02:38:59.406Z,6.03
2022-10-11T02:41:43.949Z,7.40
2022-10-11T02:44:33.616Z,6.40
2022-10-11T02:47:26.061Z,6.57
2022-10-11T02:50:15.069Z,5.43
2022-10-11T02:53:03.866Z,6.07
2022-10-11T02:55:55.191Z,4.20
2022-10-11T02:58:36.810Z,4.93
2022-10-11T03:01:28.819Z,4.65
2022-10-11T03:04:22.265Z,5.50
2022-10-11T03:07:23.949Z,9.13
2022-10-11T03:10:10.133Z,7.82
2022-10-11T03:12:52.232Z,5.13
2022-10-11T03:16:03.647Z,7.32
2022-10-11T03:18:44.917Z,7.22
2022-10-11T03:21:27.378Z,6.60
2022-10-11T03:24:07.576Z,7.37
2022-10-11T03:26:48.219Z,9.27
2022-10-11T03:29:44.208Z,6.40
2022-10-11T03:32:36.990Z,6.87
2022-10-11T03:35:18.546Z,7.40
2022-10-11T03:38:04.405Z,6.68
2022-10-11T03:40:52.883Z,9.73
2022-10-11T03:43:54.566Z,8.00
2022-10-11T03:46:42.440Z,6.00
2022-10-11T03:49:21.810Z,10.55
2022-10-11T03:52:21.568Z,7.10
2022-10-11T03:55:09.279Z,6.00
2022-10-11T03:58:18.102Z,7.57
2022-10-11T04:01:01.498Z,5.57
2022-10-11T04:03:44.919Z,7.97
2022-10-11T04:06:24.759Z,7.38
2022-10-11T04:09:05.148Z,7.17
2022-10-11T04:11:45.758Z,7.28
2022-10-11T04:14:27.541Z,6.03
2022-10-11T04:17:11.956Z,4.53
2022-10-11T04:20:00.624Z,6.38
2022-10-11T04:22:52.688Z,5.03
2022-10-11T04:25:52.506Z,5.10
2022-10-11T04:28:35.562Z,6.75
2022-10-11T04:31:16.964Z,6.13
2022-10-11T04:33:58.777Z,5.55
2022-10-11T04:36:43.581Z,5.15
2022-10-11T04:39:27.930Z,6.15
2022-10-11T04:42:13.667Z,4.43
2022-10-11T04:44:53.724Z,5.43
2022-10-11T04:47:35.711Z,7.65
2022-10-11T04:50:16.234Z,4.70
2022-10-11T04:53:02.012Z,4.68
2022-10-11T04:55:42.716Z,4.07
2022-10-11T04:58:35.903Z,6.43
2022-10-11T05:01:16.900Z,3.78
2022-10-11T05:03:59.242Z,5.60
2022-10-11T05:06:53.304Z,5.28
2022-10-11T05:09:34.662Z,4.63
2022-10-11T05:12:16.420Z,5.23
2022-10-11T05:14:57.863Z,3.53
2022-10-11T05:17:39.601Z,5.00
2022-10-11T05:20:20.593Z,4.00
2022-10-11T05:23:00.650Z,3.65
2022-10-11T05:25:49.807Z,5.18
2022-10-11T05:28:34.135Z,4.75
2022-10-11T05:31:16.097Z,5.63
2022-10-11T05:33:57.530Z,4.15
2022-10-11T05:36:38.589Z,7.70
2022-10-11T05:39:24.262Z,4.50
2022-10-11T05:42:10.013Z,3.60
2022-10-11T05:45:00.295Z,4.70
2022-10-11T05:47:40.565Z,4.10
2022-10-11T05:50:24.174Z,3.92
2022-10-11T05:53:07.333Z,3.97
2022-10-11T05:55:54.319Z,6.10
2022-10-11T05:58:36.024Z,4.50
2022-10-11T06:01:21.190Z,4.13
2022-10-11T06:04:01.680Z,3.70
2022-10-11T06:06:47.165Z,4.80
2022-10-11T06:09:31.198Z,5.83
2022-10-11T06:12:12.159Z,7.22
2022-10-11T06:15:12.916Z,5.50
2022-10-11T06:17:54.789Z,5.63
2022-10-11T06:20:34.187Z,4.72
2022-10-11T06:23:41.209Z,4.65
2022-10-11T06:26:21.677Z,4.97
2022-10-11T06:29:19.643Z,6.47
2022-10-11T06:32:18.445Z,6.00
2022-10-11T06:34:58.758Z,4.13
2022-10-11T06:37:57.208Z,5.32
2022-10-11T06:40:40.140Z,7.10
2022-10-11T06:43:20.858Z,7.53
2022-10-11T06:46:15.608Z,6.30
2022-10-11T06:48:56.639Z,4.00
2022-10-11T06:51:35.961Z,4.17
2022-10-11T06:54:16.072Z,5.70
2022-10-11T06:57:30.194Z,6.60
2022-10-11T07:00:13.160Z,3.30
2022-10-11T07:02:53.683Z,4.03
2022-10-11T07:05:34.844Z,3.70
2022-10-11T07:08:14.787Z,4.90
2022-10-11T07:10:54.624Z,3.03
2022-10-11T07:13:34.556Z,4.77
2022-10-11T07:17:10.302Z,5.93
2022-10-11T07:20:12.966Z,4.40
2022-10-11T07:23:07.374Z,5.25
2022-10-11T07:25:47.503Z,5.55
2022-10-11T07:28:30.697Z,5.17
2022-10-11T07:31:15.483Z,4.80
2022-10-11T07:33:55.891Z,5.75
2022-10-11T07:36:35.281Z,5.25
2022-10-11T07:39:42.216Z,3.13
2022-10-11T07:42:39.268Z,6.30
2022-10-11T07:45:19.671Z,3.77
2022-10-11T07:48:18.108Z,3.50
2022-10-11T07:51:06.780Z,4.10
2022-10-11T07:54:07.434Z,2.92
2022-10-11T07:57:03.427Z,4.50
2022-10-11T07:59:49.322Z,3.85
2022-10-11T08:02:30.472Z,3.45
2022-10-11T08:05:34.054Z,4.38
2022-10-11T08:08:13.941Z,3.38
2022-10-11T08:10:53.692Z,2.17
2022-10-11T08:13:59.249Z,3.80
2022-10-11T08:16:40.394Z,2.00
2022-10-11T08:19:42.247Z,2.03
2022-10-11T08:22:49.903Z,3.30
2022-10-11T08:25:32.571Z,2.13
2022-10-11T08:28:27.785Z,2.63
2022-10-11T08:31:17.962Z,2.88
2022-10-11T08:33:57.861Z,3.40
2022-10-11T08:36:37.895Z,2.10
2022-10-11T08:39:18.278Z,3.60
2022-10-11T08:42:04.173Z,4.35
2022-10-11T08:45:36.214Z,2.13
2022-10-11T08:48:21.167Z,3.93
2022-10-11T08:51:06.679Z,2.90
2022-10-11T08:53:54.680Z,2.38
2022-10-11T08:56:40.048Z,2.13
2022-10-11T08:59:40.225Z,3.30
2022-10-11T09:03:03.074Z,2.97
2022-10-11T09:06:03.652Z,2.28
2022-10-11T09:09:19.427Z,3.75
2022-10-11T09:12:19.533Z,2.57
2022-10-11T09:15:16.923Z,1.95
2022-10-11T09:18:44.218Z,3.77
2022-10-11T09:21:39.376Z,1.25
2022-10-11T09:24:40.623Z,4.95
2022-10-11T09:27:57.231Z,3.17
2022-10-11T09:30:33.138Z,2.72
2022-10-11T09:43:38.790Z,3.70
2022-10-11T09:46:23.845Z,3.90
2022-10-11T09:48:54.677Z,2.53
2022-10-11T09:51:26.670Z,1.95
2022-10-11T09:53:59.319Z,1.60
2022-10-11T09:56:30.860Z,4.35
2022-10-11T09:59:29.577Z,6.10
2022-10-11T10:02:22.766Z,4.43
2022-10-11T10:05:15.415Z,2.38
2022-10-11T10:08:16.045Z,5.75
2022-10-11T10:10:48.882Z,5.00
2022-10-11T10:13:23.753Z,1.30
2022-10-11T10:15:59.256Z,3.00
2022-10-11T10:18:36.006Z,3.83
2022-10-11T10:21:09.877Z,1.92
2022-10-11T10:23:40.225Z,4.60
2022-10-11T10:26:18.806Z,3.97
2022-10-11T10:29:05.245Z,2.25
2022-10-11T10:32:08.817Z,1.95
2022-10-11T10:34:34.532Z,5.03
2022-10-11T10:37:10.313Z,3.42
2022-10-11T10:39:46.953Z,1.73
2022-10-11T10:42:18.705Z,1.48
2022-10-11T10:44:53.709Z,1.55
2022-10-11T10:47:50.684Z,1.90
2022-10-11T10:50:28.498Z,2.88
2022-10-11T10:53:12.980Z,2.00
2022-10-11T10:55:46.375Z,2.75
2022-10-11T10:58:34.021Z,3.85
2022-10-11T11:01:15.845Z,3.78
2022-10-11T11:03:54.838Z,2.28
2022-10-11T11:06:37.444Z,3.70
2022-10-11T11:09:27.507Z,1.52
2022-10-11T11:12:15.888Z,2.15
2022-10-11T11:14:57.691Z,2.38
2022-10-11T11:17:42.823Z,2.92
2022-10-11T11:20:40.350Z,2.27
2022-10-11T11:23:21.874Z,2.28
2022-10-11T11:26:02.735Z,1.05
2022-10-11T11:28:54.812Z,2.08
2022-10-11T11:31:56.153Z,1.85
2022-10-11T11:34:30.197Z,1.97
2022-10-11T11:37:07.568Z,2.63
2022-10-11T11:39:46.315Z,2.50
2022-10-11T11:42:24.495Z,2.45
2022-10-11T11:44:56.458Z,0.82
2022-10-11T11:47:35.273Z,1.07
2022-10-11T11:50:22.532Z,0.75
2022-10-11T11:52:59.086Z,6.85
2022-10-11T11:55:42.871Z,2.95
2022-10-11T11:58:35.732Z,2.00
2022-10-11T12:01:22.564Z,1.27
2022-10-11T12:03:56.960Z,2.60
2022-10-11T12:06:32.293Z,1.25
2022-10-11T12:09:07.738Z,3.28
2022-10-11T12:11:52.261Z,2.00
2022-10-11T12:14:39.379Z,1.30
2022-10-11T12:17:23.758Z,2.50
2022-10-11T12:20:15.804Z,2.40
2022-10-11T12:23:00.291Z,2.25
2022-10-11T12:25:44.529Z,2.92
2022-10-11T12:28:49.698Z,3.03
2022-10-11T12:31:24.179Z,1.90
2022-10-11T12:34:21.292Z,2.45
2022-10-11T12:36:52.161Z,2.00
2022-10-11T12:39:53.720Z,1.10
2022-10-11T12:42:30.037Z,3.17
2022-10-11T12:45:32.578Z,2.05
2022-10-11T12:48:28.681Z,1.55
2022-10-11T12:51:25.671Z,2.22
2022-10-11T12:54:36.982Z,3.38
2022-10-11T12:57:48.683Z,0.97
2022-10-11T13:00:29.365Z,1.80
2022-10-11T13:03:06.482Z,2.67
2022-10-11T13:05:49.702Z,2.90
2022-10-11T13:08:29.270Z,3.60
2022-10-11T13:11:05.752Z,4.07
2022-10-11T13:13:42.337Z,2.95
2022-10-11T13:16:22.314Z,3.90
2022-10-11T13:18:57.370Z,2.05
2022-10-11T13:21:38.684Z,3.65
2022-10-11T13:24:17.534Z,3.33
2022-10-11T13:26:49.142Z,7.50
2022-10-11T13:29:30.214Z,1.65
2022-10-11T13:31:59.837Z,2.05
2022-10-11T13:34:35.032Z,8.38
2022-10-11T13:37:05.616Z,2.47
2022-10-11T13:39:39.263Z,2.22
2022-10-11T13:42:19.165Z,1.23
2022-10-11T13:44:50.143Z,1.92
2022-10-11T13:47:24.121Z,3.83
2022-10-11T13:50:11.026Z,2.53
2022-10-11T13:52:56.109Z,2.83
2022-10-11T13:55:31.861Z,1.92
2022-10-11T13:58:03.544Z,2.58
2022-10-11T14:00:39.716Z,2.30
2022-10-11T14:03:20.302Z,5.10
2022-10-11T14:05:57.383Z,2.85
2022-10-11T14:08:37.023Z,2.88
2022-10-11T14:11:08.827Z,1.58
2022-10-11T14:13:43.691Z,5.47
2022-10-11T14:16:31.899Z,2.87
2022-10-11T14:19:12.216Z,2.85
2022-10-11T14:21:52.876Z,1.35
2022-10-11T14:24:24.274Z,3.03
2022-10-11T14:26:56.089Z,2.42
2022-10-11T14:29:29.556Z,6.80
2022-10-11T14:32:06.280Z,4.10
2022-10-11T14:34:37.831Z,3.88
2022-10-11T14:37:07.769Z,1.63
2022-10-11T14:39:36.935Z,2.17
2022-10-11T14:42:06.197Z,1.83
2022-10-11T14:44:35.036Z,3.55
2022-10-11T14:47:06.821Z,2.88
2022-10-11T14:49:39.716Z,3.55
2022-10-11T14:52:12.023Z,4.80
2022-10-11T14:54:41.970Z,2.80
2022-10-11T14:57:13.986Z,2.38
2022-10-11T14:59:44.224Z,4.82
2022-10-11T15:02:14.744Z,4.65
2022-10-11T15:04:43.403Z,3.63
2022-10-11T15:07:14.530Z,4.43
2022-10-11T15:09:43.257Z,4.63
2022-10-11T15:12:12.164Z,3.22
2022-10-11T15:14:40.950Z,2.00
2022-10-11T15:17:13.836Z,2.38
2022-10-11T15:19:42.784Z,2.90
2022-10-11T15:22:11.432Z,3.72
2022-10-11T15:24:40.518Z,2.80
2022-10-11T15:27:10.513Z,3.15
2022-10-11T15:29:39.550Z,5.18
2022-10-11T15:32:09.238Z,4.63
2022-10-11T15:34:39.663Z,4.35
2022-10-11T15:37:08.963Z,6.70
2022-10-11T15:39:38.027Z,5.95
2022-10-11T15:42:08.206Z,4.28
2022-10-11T15:44:38.195Z,4.23
2022-10-11T15:47:07.616Z,3.67
2022-10-11T15:49:38.781Z,9.40
2022-10-11T15:52:07.903Z,5.07
2022-10-11T15:54:36.636Z,4.18
2022-10-11T15:57:08.094Z,3.87
2022-10-11T15:59:38.670Z,3.67
2022-10-11T16:02:08.226Z,6.13
2022-10-11T16:04:39.461Z,8.18
2022-10-11T16:07:08.847Z,5.43
2022-10-11T16:09:38.145Z,4.60
2022-10-11T16:12:08.077Z,6.22
2022-10-11T16:14:37.329Z,5.35
2022-10-11T16:17:06.307Z,6.40
2022-10-11T16:19:35.480Z,6.38
2022-10-11T16:22:08.150Z,6.37
2022-10-11T16:24:37.385Z,4.63
2022-10-11T16:27:06.602Z,7.97
2022-10-11T16:29:35.657Z,6.55
2022-10-11T16:32:04.999Z,5.43
2022-10-11T16:34:35.486Z,6.93
2022-10-11T16:37:09.788Z,7.10
2022-10-11T16:39:41.150Z,5.75
2022-10-11T16:42:14.269Z,4.95
2022-10-11T16:44:43.902Z,6.97
2022-10-11T16:47:13.789Z,4.77
2022-10-11T16:49:43.188Z,6.55
2022-10-11T16:52:15.736Z,6.22
2022-10-11T16:54:46.386Z,7.85
2022-10-11T16:57:19.143Z,6.53
2022-10-11T16:59:49.080Z,6.20
2022-10-11T17:02:21.984Z,5.47
2022-10-11T17:04:54.179Z,6.78
2022-10-11T17:07:25.471Z,5.80
2022-10-11T17:09:54.897Z,5.20
2022-10-11T17:12:26.193Z,5.93
2022-10-11T17:14:55.831Z,5.22
2022-10-11T17:17:28.327Z,4.82
2022-10-11T17:20:02.411Z,5.35
2022-10-11T17:22:38.007Z,6.38
2022-10-11T17:25:08.824Z,7.23
2022-10-11T17:27:38.854Z,6.95
2022-10-11T17:30:10.539Z,4.72
2022-10-11T17:32:40.100Z,4.93
2022-10-11T17:35:10.222Z,5.15
2022-10-11T17:37:41.026Z,9.57
2022-10-11T17:40:12.309Z,5.10
2022-10-11T17:42:41.810Z,6.13
2022-10-11T17:45:13.906Z,7.50
2022-10-11T17:47:43.624Z,8.27
2022-10-11T17:50:13.369Z,8.90
2022-10-11T17:52:44.283Z,9.40
2022-10-11T17:55:14.843Z,8.25
2022-10-11T17:57:47.096Z,6.90
2022-10-11T18:00:18.478Z,6.70
2022-10-11T18:02:50.480Z,9.30
2022-10-11T18:05:23.003Z,9.18
2022-10-11T18:08:04.386Z,9.75
2022-10-11T18:10:35.611Z,8.32
2022-10-11T18:13:07.471Z,9.60
2022-10-11T18:15:41.237Z,9.00
2022-10-11T18:18:12.048Z,7.47
2022-10-11T18:20:49.109Z,7.60
2022-10-11T18:23:34.117Z,8.55
2022-10-11T18:26:14.736Z,9.23
2022-10-11T18:28:45.774Z,8.33
2022-10-11T18:34:08.630Z,8.50
2022-10-11T18:36:42.406Z,9.32
2022-10-11T18:39:17.881Z,9.93
2022-10-11T18:42:05.673Z,7.90
2022-10-11T18:44:35.500Z,9.48
2022-10-11T18:47:05.754Z,7.68
2022-10-11T18:49:38.653Z,8.45
2022-10-11T18:52:10.261Z,9.65
2022-10-11T18:54:43.713Z,8.43
2022-10-11T18:57:13.211Z,9.27
2022-10-11T18:59:42.658Z,8.57
2022-10-11T19:02:13.542Z,9.68
2022-10-11T19:04:42.931Z,9.18
2022-10-11T19:07:12.534Z,8.33
2022-10-11T19:09:44.791Z,8.48
2022-10-11T19:12:15.335Z,9.70
2022-10-11T19:14:47.147Z,10.55
2022-10-11T19:17:17.212Z,10.30
2022-10-11T19:19:46.829Z,8.37
2022-10-11T19:22:22.707Z,12.30
2022-10-11T19:24:57.222Z,10.60
2022-10-11T19:27:27.073Z,10.27
2022-10-11T19:29:56.512Z,9.80
2022-10-11T19:32:26.308Z,8.73
2022-10-11T19:34:55.565Z,9.82
2022-10-11T19:37:26.646Z,7.63
2022-10-11T19:39:57.795Z,9.57
2022-10-11T19:42:27.391Z,11.95
2022-10-11T19:44:58.276Z,8.17
2022-10-11T19:47:27.629Z,8.30
2022-10-11T19:50:01.055Z,9.80
2022-10-11T19:52:32.220Z,7.95
2022-10-11T19:55:03.144Z,9.60
2022-10-11T19:57:35.480Z,9.13
2022-10-11T20:00:05.223Z,11.27
2022-10-11T20:02:35.447Z,8.88
2022-10-11T20:05:08.475Z,8.88
2022-10-11T20:07:38.012Z,8.13
2022-10-11T20:10:14.115Z,10.30
2022-10-11T20:12:46.070Z,9.27
2022-10-11T20:15:17.329Z,9.18
2022-10-11T20:17:49.573Z,13.68
2022-10-11T20:21:12.228Z,10.48
2022-10-11T20:23:43.944Z,8.87
2022-10-11T20:26:17.808Z,9.27
2022-10-11T20:28:47.116Z,9.55
2022-10-11T20:31:19.696Z,7.85
2022-10-11T20:33:50.774Z,12.20
2022-10-11T20:36:23.614Z,8.57
2022-10-11T20:38:53.460Z,8.88
2022-10-11T20:41:27.810Z,10.88
2022-10-11T20:44:02.215Z,9.35
2022-10-11T20:46:33.762Z,7.88
2022-10-11T20:49:06.350Z,10.40
2022-10-11T20:51:38.293Z,9.88
2022-10-11T20:54:09.468Z,10.93
2022-10-11T20:56:40.556Z,9.13
2022-10-11T20:59:09.770Z,9.25
2022-10-11T21:01:41.429Z,8.43
2022-10-11T21:04:17.915Z,8.90
2022-10-11T21:06:47.544Z,10.15
2022-10-11T21:09:17.411Z,9.32
2022-10-11T21:11:47.767Z,10.00
2022-10-11T21:14:16.816Z,8.73
2022-10-11T21:16:45.628Z,11.20
2022-10-11T21:19:16.573Z,17.88
2022-10-11T21:21:52.547Z,13.77
2022-10-11T21:24:22.808Z,9.82
2022-10-11T21:27:00.279Z,14.30
2022-10-11T21:29:30.723Z,13.13
2022-10-11T21:31:59.443Z,11.35
2022-10-11T21:34:28.061Z,10.45
2022-10-11T21:36:56.884Z,13.30
2022-10-11T21:39:25.606Z,10.97
2022-10-11T21:41:55.613Z,11.70
2022-10-11T21:44:24.395Z,11.27
2022-10-11T21:47:08.450Z,9.65
2022-10-11T21:49:37.364Z,10.57
2022-10-11T21:52:06.661Z,10.70
2022-10-11T21:54:35.305Z,11.48
2022-10-11T21:57:05.721Z,15.88
2022-10-11T21:59:34.415Z,13.57
2022-10-11T22:02:05.370Z,15.50
2022-10-11T22:04:35.481Z,8.83
2022-10-11T22:07:07.511Z,9.95
2022-10-11T22:09:36.200Z,10.50
2022-10-11T22:12:07.498Z,10.50
2022-10-11T22:14:36.465Z,12.63
2022-10-11T22:17:05.675Z,10.90
2022-10-11T22:19:34.331Z,11.23
2022-10-11T22:22:03.034Z,11.68
2022-10-11T22:27:29.011Z,9.48
2022-10-11T22:29:57.738Z,13.27
2022-10-11T22:32:26.456Z,7.72
2022-10-11T22:34:55.348Z,11.68
2022-10-11T22:37:24.989Z,9.70
2022-10-11T22:39:55.278Z,13.70
2022-10-11T22:42:27.698Z,9.20
2022-10-11T22:44:56.756Z,13.52
2022-10-11T22:47:25.745Z,14.27
2022-10-11T22:49:54.583Z,11.75
2022-10-11T22:52:23.287Z,13.13
2022-10-11T22:54:52.041Z,10.90
2022-10-11T22:57:20.646Z,10.00
2022-10-11T22:59:52.001Z,7.97
2022-10-11T23:02:24.250Z,9.30
2022-10-11T23:04:54.274Z,8.88
2022-10-11T23:07:23.042Z,7.63
2022-10-11T23:09:51.760Z,9.88
2022-10-11T23:12:20.560Z,8.48
2022-10-11T23:14:49.282Z,11.50
2022-10-11T23:17:19.519Z,8.05
2022-10-11T23:19:48.250Z,9.87
2022-10-11T23:22:17.278Z,9.77
2022-10-11T23:24:46.152Z,10.07
2022-10-11T23:27:14.974Z,8.07
2022-10-11T23:29:43.742Z,6.00
2022-10-11T23:32:13.038Z,7.30
2022-10-11T23:34:43.137Z,8.48
2022-10-11T23:37:12.116Z,8.90
2022-10-11T23:39:40.809Z,6.78
2022-10-11T23:42:11.495Z,8.20
2022-10-11T23:44:44.632Z,11.53
2022-10-11T23:47:13.970Z,8.05
2022-10-11T23:49:45.861Z,7.00
2022-10-11T23:52:14.890Z,7.93
2022-10-11T23:54:45.330Z,10.52
2022-10-11T23:57:14.583Z,8.17
2022-10-11T23:59:50.426Z,6.72
